createdAt,value
2022-11-16T00:02:14.294Z,75.33
2022-11-16T00:04:42.389Z,75.36
2022-11-16T00:07:10.340Z,75.03
2022-11-16T00:09:37.699Z,75.39
2022-11-16T00:12:08.891Z,75.32
2022-11-16T00:14:36.833Z,75.29
2022-11-16T00:17:05.011Z,75.47
2022-11-16T00:19:32.713Z,75.41
2022-11-16T00:22:05.589Z,74.80
2022-11-16T00:24:32.837Z,74.89
2022-11-16T00:27:00.671Z,75.08
2022-11-16T00:29:28.977Z,74.46
2022-11-16T00:31:56.449Z,74.58
2022-11-16T00:34:24.442Z,74.94
2022-11-16T00:36:52.231Z,75.14
2022-11-16T00:39:19.726Z,75.01
2022-11-16T00:41:48.251Z,74.98
2022-11-16T00:44:15.808Z,75.61
2022-11-16T00:46:43.532Z,75.32
2022-11-16T00:49:10.850Z,75.16
2022-11-16T00:51:38.807Z,75.52
2022-11-16T00:54:08.460Z,75.70
2022-11-16T00:56:37.505Z,75.57
2022-11-16T00:59:04.886Z,75.49
2022-11-16T01:01:32.319Z,75.22
2022-11-16T01:03:59.998Z,75.74
2022-11-16T01:06:27.824Z,75.92
2022-11-16T01:08:54.990Z,75.75
2022-11-16T01:11:40.868Z,75.82
2022-11-16T01:14:09.240Z,75.71
2022-11-16T01:16:36.690Z,75.54
2022-11-16T01:19:05.916Z,75.56
2022-11-16T01:21:33.880Z,75.56
2022-11-16T01:24:01.088Z,75.37
2022-11-16T01:26:29.365Z,75.48
2022-11-16T01:28:58.649Z,75.49
2022-11-16T01:31:26.616Z,76.15
2022-11-16T01:33:55.105Z,76.05
2022-11-16T01:36:22.824Z,76.00
2022-11-16T01:38:50.766Z,76.18
2022-11-16T01:41:24.108Z,76.26
2022-11-16T01:44:05.243Z,76.53
2022-11-16T01:46:33.440Z,76.75
2022-11-16T01:49:16.453Z,77.00
2022-11-16T01:51:48.375Z,76.57
2022-11-16T01:54:17.626Z,76.86
2022-11-16T01:56:49.270Z,76.78
2022-11-16T01:59:17.512Z,76.42
2022-11-16T02:01:45.407Z,76.58
2022-11-16T02:04:13.254Z,76.80
2022-11-16T02:06:59.042Z,76.67
2022-11-16T02:10:07.742Z,76.54
2022-11-16T02:12:38.066Z,76.82
2022-11-16T02:15:13.870Z,76.47
2022-11-16T02:18:04.654Z,76.39
2022-11-16T02:21:00.839Z,76.86
2022-11-16T02:23:40.442Z,76.74
2022-11-16T02:26:49.119Z,76.84
2022-11-16T02:29:37.912Z,77.23
2022-11-16T02:32:22.989Z,77.11
2022-11-16T02:34:58.350Z,77.37
2022-11-16T02:37:30.488Z,76.93
2022-11-16T02:40:03.334Z,77.17
2022-11-16T02:42:35.969Z,77.04
2022-11-16T02:45:08.938Z,77.18
2022-11-16T02:47:38.562Z,77.54
2022-11-16T02:50:12.715Z,77.45
2022-11-16T02:52:39.859Z,77.86
2022-11-16T02:55:07.608Z,77.47
2022-11-16T02:57:48.240Z,77.80
2022-11-16T03:00:20.138Z,77.88
2022-11-16T03:03:04.252Z,78.13
2022-11-16T03:05:36.889Z,77.92
2022-11-16T03:08:14.879Z,77.90
2022-11-16T03:11:06.048Z,78.22
2022-11-16T03:13:36.143Z,77.88
2022-11-16T03:16:13.296Z,77.87
2022-11-16T03:18:42.272Z,78.34
2022-11-16T03:21:25.439Z,78.17
2022-11-16T03:23:54.652Z,78.46
2022-11-16T03:26:29.216Z,78.32
2022-11-16T03:29:03.556Z,78.04
2022-11-16T03:31:39.598Z,78.49
2022-11-16T03:34:12.817Z,78.67
2022-11-16T03:36:44.034Z,78.34
2022-11-16T03:39:17.359Z,78.85
2022-11-16T03:41:47.641Z,78.40
2022-11-16T03:44:16.970Z,78.48
2022-11-16T03:46:45.432Z,78.61
2022-11-16T03:49:12.715Z,78.74
2022-11-16T03:51:40.803Z,78.80
2022-11-16T03:54:07.820Z,78.98
2022-11-16T03:56:35.511Z,79.01
2022-11-16T03:59:02.546Z,79.33
2022-11-16T04:01:29.978Z,79.11
2022-11-16T04:03:56.985Z,79.16
2022-11-16T04:06:42.932Z,79.22
2022-11-16T04:09:29.381Z,79.54
2022-11-16T04:12:15.773Z,79.47
2022-11-16T04:15:01.950Z,79.28
2022-11-16T04:18:08.340Z,79.62
2022-11-16T04:20:54.571Z,80.02
2022-11-16T04:23:41.052Z,80.13
2022-11-16T04:26:10.452Z,80.30
2022-11-16T04:28:39.836Z,79.77
2022-11-16T04:31:25.684Z,79.72
2022-11-16T04:34:12.550Z,79.71
2022-11-16T04:36:57.957Z,79.75
2022-11-16T04:39:25.233Z,79.95
2022-11-16T04:42:10.732Z,79.74
2022-11-16T04:44:57.317Z,79.65
2022-11-16T04:47:24.563Z,79.91
2022-11-16T04:49:53.780Z,80.35
2022-11-16T04:52:21.355Z,80.14
2022-11-16T04:54:48.792Z,80.23
2022-11-16T04:57:16.115Z,79.96
2022-11-16T04:59:44.083Z,80.06
2022-11-16T05:02:11.292Z,80.07
2022-11-16T05:04:41.277Z,80.40
2022-11-16T05:07:12.075Z,80.29
2022-11-16T05:09:47.296Z,80.20
2022-11-16T05:12:19.076Z,79.97
2022-11-16T05:14:50.447Z,80.14
2022-11-16T05:17:20.930Z,80.06
2022-11-16T05:20:08.044Z,80.09
2022-11-16T05:22:35.634Z,80.28
2022-11-16T05:25:04.735Z,80.26
2022-11-16T05:27:31.816Z,80.16
2022-11-16T05:29:59.393Z,79.87
2022-11-16T05:32:31.233Z,80.35
2022-11-16T05:34:58.717Z,80.15
2022-11-16T05:37:30.260Z,80.04
2022-11-16T05:40:00.138Z,80.12
2022-11-16T05:42:27.925Z,79.74
2022-11-16T05:47:38.123Z,80.30
2022-11-16T05:50:10.382Z,80.22
2022-11-16T05:52:37.447Z,79.91
2022-11-16T05:55:05.502Z,79.79
2022-11-16T05:57:32.544Z,79.79
2022-11-16T05:59:59.864Z,79.99
2022-11-16T06:02:27.501Z,80.10
2022-11-16T06:04:54.792Z,79.47
2022-11-16T06:07:21.910Z,79.27
2022-11-16T06:09:49.410Z,79.50
2022-11-16T06:12:16.573Z,79.70
2022-11-16T06:14:43.939Z,79.56
2022-11-16T06:17:14.493Z,79.81
2022-11-16T06:19:44.711Z,79.82
2022-11-16T06:22:12.017Z,79.79
2022-11-16T06:24:39.325Z,79.97
2022-11-16T06:27:06.387Z,79.85
2022-11-16T06:29:38.326Z,79.93
2022-11-16T06:32:07.521Z,79.75
2022-11-16T06:34:47.248Z,79.98
2022-11-16T06:37:14.382Z,80.06
2022-11-16T06:39:44.546Z,80.28
2022-11-16T06:42:11.719Z,80.00
2022-11-16T06:44:47.373Z,80.36
2022-11-16T06:47:14.325Z,80.03
2022-11-16T06:49:43.473Z,79.87
2022-11-16T06:52:10.707Z,79.78
2022-11-16T06:54:46.457Z,79.41
2022-11-16T06:57:30.467Z,79.44
2022-11-16T07:02:40.770Z,79.44
2022-11-16T07:05:09.454Z,79.20
2022-11-16T07:07:36.850Z,79.48
2022-11-16T07:10:08.052Z,79.59
2022-11-16T07:12:36.379Z,79.55
2022-11-16T07:15:07.905Z,79.29
2022-11-16T07:17:45.096Z,78.99
2022-11-16T07:20:16.310Z,79.25
2022-11-16T07:22:43.329Z,79.25
2022-11-16T07:25:12.697Z,79.17
2022-11-16T07:27:39.801Z,79.04
2022-11-16T07:30:16.900Z,78.78
2022-11-16T07:32:45.110Z,78.84
2022-11-16T07:35:18.185Z,78.90
2022-11-16T07:37:50.151Z,78.70
2022-11-16T07:40:17.673Z,78.49
2022-11-16T07:42:48.903Z,78.65
2022-11-16T07:45:18.610Z,78.65
2022-11-16T07:47:57.499Z,78.56
2022-11-16T07:50:28.055Z,78.41
2022-11-16T07:52:56.059Z,78.73
2022-11-16T07:55:34.686Z,78.36
2022-11-16T07:58:08.916Z,78.75
2022-11-16T08:00:37.092Z,79.09
2022-11-16T08:03:06.397Z,79.10
2022-11-16T08:05:33.939Z,79.29
2022-11-16T08:08:01.221Z,78.79
2022-11-16T08:10:30.360Z,78.97
2022-11-16T08:12:57.641Z,78.81
2022-11-16T08:15:25.931Z,78.99
2022-11-16T08:17:59.265Z,78.48
2022-11-16T08:20:28.598Z,78.81
2022-11-16T08:22:59.642Z,78.39
2022-11-16T08:25:31.148Z,78.51
2022-11-16T08:27:58.306Z,78.19
2022-11-16T08:30:25.716Z,78.02
2022-11-16T08:32:53.679Z,77.80
2022-11-16T08:35:24.211Z,77.53
2022-11-16T08:43:34.236Z,76.99
2022-11-16T08:46:05.965Z,76.99
2022-11-16T08:48:34.717Z,76.86
2022-11-16T08:53:58.610Z,77.14
2022-11-16T08:56:30.321Z,77.57
2022-11-16T08:58:59.837Z,77.29
2022-11-16T09:01:29.429Z,77.63
2022-11-16T09:03:56.979Z,77.71
2022-11-16T09:06:26.456Z,78.35
2022-11-16T09:08:53.457Z,77.73
2022-11-16T09:11:22.736Z,77.30
2022-11-16T09:13:52.140Z,77.80
2022-11-16T09:16:21.124Z,77.44
2022-11-16T09:18:52.084Z,77.46
2022-11-16T09:21:22.432Z,77.28
2022-11-16T09:23:50.218Z,77.09
2022-11-16T09:26:21.246Z,77.45
2022-11-16T09:28:56.334Z,77.63
2022-11-16T09:31:24.758Z,77.63
2022-11-16T09:33:51.801Z,77.62
2022-11-16T09:36:20.749Z,76.96
2022-11-16T09:39:23.805Z,77.46
2022-11-16T09:41:52.205Z,77.30
2022-11-16T09:44:31.485Z,77.18
2022-11-16T09:47:01.322Z,76.94
2022-11-16T09:49:45.025Z,76.73
2022-11-16T09:52:21.202Z,77.08
2022-11-16T09:54:49.863Z,76.91
2022-11-16T09:57:33.659Z,77.35
2022-11-16T10:00:13.774Z,76.73
2022-11-16T10:02:47.901Z,76.77
2022-11-16T10:06:10.620Z,76.92
2022-11-16T10:08:46.394Z,76.76
2022-11-16T10:11:52.582Z,77.21
2022-11-16T10:14:41.205Z,76.66
2022-11-16T10:17:56.362Z,76.79
2022-11-16T10:20:47.809Z,77.06
2022-11-16T10:23:28.753Z,76.97
2022-11-16T10:30:01.598Z,77.16
2022-11-16T10:32:32.986Z,77.34
2022-11-16T10:35:10.502Z,76.99
2022-11-16T10:37:59.971Z,77.36
2022-11-16T10:40:36.126Z,77.43
2022-11-16T10:43:13.885Z,77.25
2022-11-16T10:45:47.487Z,77.12
2022-11-16T10:48:37.156Z,77.12
2022-11-16T10:51:05.527Z,77.05
2022-11-16T10:53:37.084Z,77.38
2022-11-16T10:56:37.294Z,77.40
2022-11-16T10:59:09.559Z,76.78
2022-11-16T11:01:51.579Z,77.03
2022-11-16T11:04:28.774Z,76.70
2022-11-16T11:07:40.295Z,76.83
2022-11-16T11:10:39.894Z,76.94
2022-11-16T11:13:11.422Z,76.83
2022-11-16T11:15:45.976Z,76.98
2022-11-16T11:18:27.178Z,77.11
2022-11-16T11:24:57.992Z,76.63
2022-11-16T11:27:34.216Z,76.79
2022-11-16T11:30:02.307Z,76.95
2022-11-16T11:32:40.240Z,76.31
2022-11-16T11:35:23.802Z,76.51
2022-11-16T11:37:55.845Z,77.01
2022-11-16T11:43:23.973Z,76.66
2022-11-16T11:46:06.363Z,77.01
2022-11-16T11:48:48.116Z,76.85
2022-11-16T11:51:35.258Z,76.65
2022-11-16T11:54:05.415Z,76.70
2022-11-16T11:56:34.306Z,76.42
2022-11-16T11:59:05.084Z,76.35
2022-11-16T12:01:56.638Z,76.59
2022-11-16T12:05:04.230Z,76.95
2022-11-16T12:08:02.079Z,76.46
2022-11-16T12:10:35.188Z,76.34
2022-11-16T12:13:25.814Z,76.53
2022-11-16T12:16:13.439Z,76.09
2022-11-16T12:19:06.942Z,76.01
2022-11-16T12:21:49.264Z,76.36
2022-11-16T12:24:40.346Z,76.23
2022-11-16T12:27:41.211Z,76.43
2022-11-16T12:30:18.472Z,75.82
2022-11-16T12:33:05.184Z,76.26
2022-11-16T12:35:45.628Z,75.91
2022-11-16T12:38:30.180Z,75.97
2022-11-16T12:41:35.077Z,76.04
2022-11-16T12:44:11.942Z,76.05
2022-11-16T12:46:39.708Z,76.15
2022-11-16T12:49:34.814Z,75.94
2022-11-16T12:52:27.933Z,76.02
2022-11-16T12:55:26.288Z,76.15
2022-11-16T12:58:24.849Z,76.19
2022-11-16T13:01:10.854Z,76.26
2022-11-16T13:03:50.173Z,76.19
2022-11-16T13:06:21.228Z,76.17
2022-11-16T13:12:00.042Z,76.06
2022-11-16T13:14:38.689Z,76.13
2022-11-16T13:17:22.964Z,76.51
2022-11-16T13:20:15.538Z,76.17
2022-11-16T13:22:53.654Z,75.78
2022-11-16T13:25:31.894Z,76.18
2022-11-16T13:28:23.513Z,76.16
2022-11-16T13:31:14.700Z,76.01
2022-11-16T13:33:51.230Z,76.45
2022-11-16T13:36:37.452Z,76.11
2022-11-16T13:39:08.172Z,76.40
2022-11-16T13:41:40.581Z,76.46
2022-11-16T13:44:21.081Z,76.47
2022-11-16T13:46:56.314Z,76.58
2022-11-16T13:49:33.294Z,76.63
2022-11-16T13:52:40.406Z,76.56
2022-11-16T13:55:41.415Z,75.91
2022-11-16T13:58:39.335Z,76.02
2022-11-16T14:01:18.966Z,75.77
2022-11-16T14:03:52.223Z,76.13
2022-11-16T14:12:40.417Z,76.43
2022-11-16T14:15:24.502Z,76.58
2022-11-16T14:17:58.339Z,76.22
2022-11-16T14:20:37.810Z,76.30
2022-11-16T14:23:20.569Z,76.34
2022-11-16T14:25:57.004Z,76.27
2022-11-16T14:28:52.501Z,76.35
2022-11-16T14:31:30.053Z,76.54
2022-11-16T14:34:00.456Z,76.39
2022-11-16T14:36:49.826Z,76.21
2022-11-16T14:39:28.620Z,76.38
2022-11-16T14:42:03.742Z,76.24
2022-11-16T14:44:37.954Z,76.30
2022-11-16T14:47:29.431Z,76.44
2022-11-16T14:49:57.168Z,76.24
2022-11-16T14:52:30.703Z,76.10
2022-11-16T14:55:03.878Z,76.33
2022-11-16T14:57:31.502Z,75.64
2022-11-16T15:03:12.495Z,75.83
2022-11-16T15:05:39.773Z,76.25
2022-11-16T15:08:17.496Z,76.51
2022-11-16T15:10:52.625Z,76.97
2022-11-16T15:13:24.840Z,76.60
2022-11-16T15:16:26.038Z,76.67
2022-11-16T15:19:02.472Z,76.54
2022-11-16T15:21:30.030Z,77.03
2022-11-16T15:26:45.737Z,77.01
2022-11-16T15:29:33.645Z,76.63
2022-11-16T15:32:02.202Z,76.74
2022-11-16T15:34:31.663Z,76.88
2022-11-16T15:37:03.163Z,76.70
2022-11-16T15:39:34.510Z,76.92
2022-11-16T15:42:04.882Z,76.67
2022-11-16T15:44:33.959Z,77.09
2022-11-16T15:47:04.000Z,76.67
2022-11-16T15:49:36.367Z,76.50
2022-11-16T15:52:07.854Z,76.78
2022-11-16T15:54:55.331Z,77.24
2022-11-16T15:57:24.153Z,76.72
2022-11-16T15:59:55.075Z,76.96
2022-11-16T16:02:28.189Z,77.28
2022-11-16T16:04:56.279Z,76.87
2022-11-16T16:07:45.871Z,76.56
2022-11-16T16:10:19.739Z,76.55
2022-11-16T16:12:51.767Z,76.46
2022-11-16T16:15:36.234Z,76.36
2022-11-16T16:18:16.056Z,76.33
2022-11-16T16:20:48.577Z,76.91
2022-11-16T16:23:16.913Z,77.22
2022-11-16T16:25:50.062Z,77.04
2022-11-16T16:28:17.819Z,77.26
2022-11-16T16:30:59.721Z,77.11
2022-11-16T16:33:30.379Z,77.21
2022-11-16T16:35:57.430Z,77.29
2022-11-16T16:38:26.415Z,77.39
2022-11-16T16:43:37.614Z,77.26
2022-11-16T16:46:07.752Z,77.33
2022-11-16T16:48:41.747Z,76.92
2022-11-16T16:51:12.970Z,77.11
2022-11-16T16:53:45.196Z,77.08
2022-11-16T16:56:19.690Z,77.36
2022-11-16T16:58:47.254Z,77.12
2022-11-16T17:01:19.676Z,77.01
2022-11-16T17:04:01.651Z,77.01
2022-11-16T17:06:32.765Z,76.93
2022-11-16T17:08:59.961Z,77.47
2022-11-16T17:11:27.422Z,76.97
2022-11-16T17:13:54.986Z,77.20
2022-11-16T17:16:23.178Z,76.79
2022-11-16T17:18:56.811Z,76.87
2022-11-16T17:21:24.346Z,76.66
2022-11-16T17:23:51.476Z,77.09
2022-11-16T17:26:20.431Z,76.93
2022-11-16T17:28:48.609Z,76.81
2022-11-16T17:31:18.971Z,77.26
2022-11-16T17:33:46.842Z,76.78
2022-11-16T17:36:14.882Z,76.83
2022-11-16T17:38:42.230Z,76.88
2022-11-16T17:41:39.840Z,77.27
2022-11-16T17:44:07.341Z,77.30
2022-11-16T17:46:35.209Z,77.44
2022-11-16T17:49:02.469Z,77.27
2022-11-16T17:51:43.505Z,77.62
2022-11-16T17:54:13.095Z,77.33
2022-11-16T17:59:30.864Z,77.12
2022-11-16T18:02:00.804Z,77.55
2022-11-16T18:04:28.021Z,77.62
2022-11-16T18:06:57.330Z,77.66
2022-11-16T18:09:26.430Z,77.40
2022-11-16T18:11:54.242Z,77.80
2022-11-16T18:14:30.702Z,77.63
2022-11-16T18:17:07.800Z,77.31
2022-11-16T18:19:34.953Z,77.55
2022-11-16T18:22:13.337Z,77.56
2022-11-16T18:24:40.622Z,77.44
2022-11-16T18:29:49.552Z,77.61
2022-11-16T18:32:20.300Z,77.80
2022-11-16T18:34:49.095Z,77.53
2022-11-16T18:37:18.166Z,77.57
2022-11-16T18:39:45.930Z,77.84
2022-11-16T18:42:16.789Z,77.65
2022-11-16T18:44:48.338Z,77.59
2022-11-16T18:47:15.789Z,77.74
2022-11-16T18:49:43.186Z,77.88
2022-11-16T18:52:10.972Z,78.22
2022-11-16T18:54:38.347Z,78.07
2022-11-16T18:59:47.700Z,77.75
2022-11-16T19:02:16.452Z,77.84
2022-11-16T19:04:44.351Z,77.97
2022-11-16T19:10:01.912Z,78.20
2022-11-16T19:30:16.445Z,78.08
2022-11-16T19:32:44.827Z,78.32
2022-11-16T19:35:47.573Z,78.83
2022-11-16T19:38:34.675Z,79.15
2022-11-16T19:41:02.550Z,79.69
2022-11-16T19:43:32.151Z,79.73
2022-11-16T19:46:23.720Z,79.68
2022-11-16T19:48:59.757Z,79.71
2022-11-16T19:51:33.990Z,80.09
2022-11-16T19:54:11.971Z,80.36
2022-11-16T19:56:42.324Z,80.60
2022-11-16T19:59:13.107Z,80.61
2022-11-16T20:01:43.438Z,80.38
2022-11-16T20:04:10.690Z,81.04
2022-11-16T20:06:39.072Z,80.77
2022-11-16T20:09:12.418Z,81.49
2022-11-16T20:11:43.460Z,81.46
2022-11-16T20:14:12.179Z,81.64
2022-11-16T20:16:41.552Z,81.59
2022-11-16T20:19:19.224Z,82.09
2022-11-16T20:21:57.802Z,82.25
2022-11-16T20:24:32.094Z,82.35
2022-11-16T20:27:02.338Z,82.51
2022-11-16T20:29:33.956Z,82.68
2022-11-16T20:32:09.697Z,83.09
2022-11-16T20:34:42.844Z,83.51
2022-11-16T20:37:17.848Z,83.96
2022-11-16T20:39:52.710Z,83.55
2022-11-16T20:42:24.328Z,83.99
2022-11-16T20:44:56.574Z,84.36
2022-11-16T20:47:24.159Z,84.30
2022-11-16T20:49:53.146Z,84.60
2022-11-16T20:52:20.814Z,84.89
2022-11-16T20:54:47.873Z,84.84
2022-11-16T20:57:15.353Z,84.75
2022-11-16T20:59:42.629Z,84.71
2022-11-16T21:02:11.668Z,84.50
2022-11-16T21:04:38.860Z,84.63
2022-11-16T21:07:06.513Z,84.07
2022-11-16T21:09:53.713Z,84.68
2022-11-16T21:12:42.772Z,84.99
2022-11-16T21:15:28.159Z,84.85
2022-11-16T21:17:55.536Z,84.97
2022-11-16T21:20:29.698Z,84.98
2022-11-16T21:22:57.146Z,84.90
2022-11-16T21:25:24.292Z,85.48
2022-11-16T21:27:52.265Z,85.54
2022-11-16T21:30:20.047Z,85.14
2022-11-16T21:32:47.379Z,84.39
2022-11-16T21:35:16.241Z,85.03
2022-11-16T21:37:45.332Z,84.97
2022-11-16T21:40:53.751Z,85.96
2022-11-16T21:43:21.390Z,86.36
2022-11-16T21:45:49.986Z,86.59
2022-11-16T21:48:17.798Z,86.41
2022-11-16T21:50:44.837Z,86.15
2022-11-16T21:53:12.163Z,85.99
2022-11-16T21:55:48.679Z,85.50
2022-11-16T21:58:15.989Z,86.06
2022-11-16T22:00:43.227Z,86.38
2022-11-16T22:03:12.138Z,86.33
2022-11-16T22:06:00.320Z,86.02
2022-11-16T22:08:29.944Z,85.21
2022-11-16T22:10:59.235Z,85.01
2022-11-16T22:13:26.624Z,84.58
2022-11-16T22:15:54.083Z,84.00
2022-11-16T22:18:21.051Z,84.32
2022-11-16T22:20:50.201Z,84.18
2022-11-16T22:23:21.550Z,84.36
2022-11-16T22:25:53.426Z,84.20
2022-11-16T22:28:22.023Z,84.39
2022-11-16T22:30:51.927Z,84.29
2022-11-16T22:33:19.552Z,84.07
2022-11-16T22:35:47.350Z,84.48
2022-11-16T22:38:16.023Z,84.54
2022-11-16T22:40:57.087Z,84.81
2022-11-16T22:43:26.909Z,85.15
2022-11-16T22:46:01.378Z,86.06
2022-11-16T22:48:34.483Z,86.72
2022-11-16T22:51:26.422Z,87.02
2022-11-16T22:54:01.591Z,87.36
2022-11-16T22:56:31.066Z,88.11
2022-11-16T22:58:58.668Z,88.27
2022-11-16T23:01:26.149Z,88.34
2022-11-16T23:03:55.634Z,88.31
2022-11-16T23:06:23.124Z,88.01
2022-11-16T23:08:51.292Z,88.04
2022-11-16T23:11:40.745Z,88.09
2022-11-16T23:14:30.332Z,87.91
2022-11-16T23:16:59.331Z,87.34
2022-11-16T23:19:46.313Z,86.57
2022-11-16T23:22:35.395Z,86.28
2022-11-16T23:25:22.227Z,85.97
2022-11-16T23:27:55.291Z,85.86
2022-11-16T23:30:22.647Z,85.61
2022-11-16T23:32:50.110Z,85.58
2022-11-16T23:35:17.833Z,85.64
2022-11-16T23:37:52.364Z,85.74
2022-11-16T23:40:20.160Z,86.69
2022-11-16T23:43:05.968Z,86.61
2022-11-16T23:45:33.360Z,86.72
2022-11-16T23:48:01.273Z,87.18
2022-11-16T23:50:28.479Z,86.85
2022-11-16T23:52:56.186Z,86.96
2022-11-16T23:55:23.296Z,87.36
2022-11-16T23:57:51.414Z,87.23
